Time;durP1;ratioP1;P1;durP2;ratioP2;P2;SDS_P1;SDS_P2;PMS_P1;PMS_P2;Temp;Humidity;BMP_temperature;BMP_pressure;BME280_temperature;BME280_humidity;BME280_pressure;Samples;Min_cycle;Max_cycle;Signal;HPM_P1;HPM_P2
2023/01/20 00:04:40;;;;;;;35.10;4.65;;;;;;;20.67;43.89;100285.53;21064056;28;20073;-62
2023/01/20 00:14:42;;;;;;;26.85;4.47;;;;;;;20.76;44.04;100267.09;21073462;28;20495;-62
2023/01/20 00:24:43;;;;;;;21.55;3.58;;;;;;;20.77;43.83;100268.75;21070552;28;20380;-62
2023/01/20 00:34:48;;;;;;;23.67;4.28;;;;;;;20.77;43.34;100245.66;21068544;28;20105;-62
2023/01/20 00:44:52;;;;;;;17.77;4.15;;;;;;;20.71;43.61;100192.09;21072299;28;20052;-63
2023/01/20 00:54:56;;;;;;;17.48;3.00;;;;;;;20.70;43.64;100162.59;21067282;28;20388;-63
2023/01/20 01:04:57;;;;;;;13.07;3.47;;;;;;;20.66;43.34;100139.31;21068626;28;20461;-62
2023/01/20 01:15:01;;;;;;;11.02;3.22;;;;;;;20.63;43.21;100109.34;21058455;28;20040;-62
2023/01/20 01:25:03;;;;;;;14.10;2.95;;;;;;;20.60;43.25;100089.66;21061086;28;20044;-62
2023/01/20 01:35:07;;;;;;;19.40;3.20;;;;;;;20.43;43.88;100123.47;21051009;28;20040;-61
2023/01/20 01:45:11;;;;;;;13.55;3.13;;;;;;;20.40;44.30;100213.81;21058898;28;20044;-63
2023/01/20 01:55:16;;;;;;;10.27;2.40;;;;;;;20.40;44.26;100183.25;21077441;28;20449;-62
2023/01/20 02:05:18;;;;;;;14.10;2.92;;;;;;;20.42;44.24;100191.28;21083530;28;20032;-63
2023/01/20 02:15:26;;;;;;;11.65;2.50;;;;;;;20.45;44.36;100129.56;21084852;28;20048;-63
2023/01/20 02:26:00;;;;;;;13.02;3.10;;;;;;;20.52;43.96;100150.31;21081362;28;20031;-63
2023/01/20 02:36:05;;;;;;;17.38;2.85;;;;;;;20.57;43.64;100157.78;21088753;28;20441;-63
2023/01/20 02:46:22;;;;;;;19.05;3.17;;;;;;;20.56;43.75;100145.00;21088413;28;20491;-63
2023/01/20 02:56:27;;;;;;;34.55;3.60;;;;;;;20.62;43.63;100121.59;21080486;28;20390;-63
2023/01/20 03:06:37;;;;;;;18.85;3.05;;;;;;;20.71;43.71;100143.97;21082846;28;20047;-61
2023/01/20 03:16:39;;;;;;;14.00;3.38;;;;;;;20.73;43.54;100145.34;21084281;28;20441;-62
2023/01/20 03:26:43;;;;;;;17.58;3.70;;;;;;;20.74;43.10;100140.59;21069510;28;20101;-63
2023/01/20 03:36:49;;;;;;;12.98;3.65;;;;;;;20.74;43.16;100119.19;21082931;28;20065;-61
2023/01/20 03:46:53;;;;;;;36.53;4.28;;;;;;;20.77;43.60;100096.34;21072292;28;20048;-62
2023/01/20 03:57:04;;;;;;;20.70;3.63;;;;;;;20.64;43.24;100074.03;21082881;28;20047;-61
2023/01/20 04:07:10;;;;;;;14.65;3.38;;;;;;;20.76;43.06;100088.31;21081806;28;20040;-61
2023/01/20 04:17:16;;;;;;;13.32;2.95;;;;;;;20.74;43.04;100091.38;21062048;28;20044;-62
2023/01/20 04:27:18;;;;;;;13.18;3.08;;;;;;;20.60;42.92;100067.41;21070171;28;20464;-61
2023/01/20 04:37:19;;;;;;;14.77;3.25;;;;;;;20.68;42.86;100106.50;21068774;28;20093;-62
2023/01/20 04:47:21;;;;;;;12.75;2.97;;;;;;;20.66;42.84;100103.16;21067962;28;20040;-64
2023/01/20 04:57:22;;;;;;;7.80;2.38;;;;;;;20.64;42.95;100129.63;21072957;28;20043;-62
2023/01/20 05:07:26;;;;;;;15.63;2.63;;;;;;;20.62;42.52;100138.28;21057866;28;20460;-63
2023/01/20 05:17:28;;;;;;;9.95;1.77;;;;;;;20.61;42.91;100161.63;21007928;28;20399;-63
2023/01/20 05:27:38;;;;;;;8.00;2.60;;;;;;;20.59;42.81;100166.66;21077076;28;20032;-62
2023/01/20 05:37:40;;;;;;;7.40;1.98;;;;;;;20.58;42.76;100262.28;21071694;28;20040;-62
2023/01/20 05:47:41;;;;;;;9.98;2.20;;;;;;;20.54;42.49;100208.41;21075085;28;20482;-62
2023/01/20 05:57:46;;;;;;;8.05;1.80;;;;;;;20.54;42.82;100180.63;21068796;28;20051;-63
2023/01/20 06:07:48;;;;;;;6.32;2.00;;;;;;;20.51;42.75;100170.09;21075920;28;20092;-62
2023/01/20 06:17:54;;;;;;;6.28;1.90;;;;;;;20.46;42.80;100164.56;21069277;28;20067;-62
2023/01/20 06:27:56;;;;;;;4.22;1.63;;;;;;;20.47;42.49;100177.31;21081897;28;20475;-64
2023/01/20 06:37:57;;;;;;;4.28;1.88;;;;;;;20.46;42.78;100234.03;21080663;28;20507;-62
2023/01/20 06:48:02;;;;;;;7.15;1.92;;;;;;;20.23;42.58;100197.59;21088236;28;20032;-61
2023/01/20 06:58:03;;;;;;;3.75;2.00;;;;;;;20.43;42.36;100234.63;21081550;28;20097;-62
2023/01/20 07:08:05;;;;;;;5.93;2.08;;;;;;;20.25;42.58;100228.72;21086682;28;20132;-63
2023/01/20 07:18:10;;;;;;;4.10;1.70;;;;;;;20.34;42.24;100241.94;21082890;28;20044;-63
2023/01/20 07:28:11;;;;;;;3.08;1.45;;;;;;;20.33;42.15;100240.28;21083653;28;20070;-63
2023/01/20 07:38:13;;;;;;;2.83;1.60;;;;;;;20.36;42.36;100239.72;21079192;28;20048;-62
2023/01/20 07:48:14;;;;;;;3.55;1.60;;;;;;;20.34;42.38;100255.84;21079276;28;20077;-63
2023/01/20 07:58:16;;;;;;;3.20;1.50;;;;;;;20.31;42.41;100255.31;21070042;28;20569;-62
2023/01/20 08:08:21;;;;;;;2.85;1.42;;;;;;;20.30;42.18;100236.16;21076268;28;20040;-63
2023/01/20 08:18:26;;;;;;;2.13;1.38;;;;;;;20.27;42.47;100245.91;21075552;28;20399;-62
2023/01/20 08:28:31;;;;;;;4.88;1.40;;;;;;;20.22;42.32;100240.41;21074763;28;20043;-62
2023/01/20 08:38:34;;;;;;;1.55;1.33;;;;;;;20.22;42.22;100254.28;21076033;28;20054;-63
2023/01/20 08:48:39;;;;;;;1.85;1.50;;;;;;;20.09;42.35;100254.97;21071780;28;20039;-63
2023/01/20 08:58:44;;;;;;;3.40;1.70;;;;;;;20.06;42.46;100258.31;21070590;28;20040;-62
2023/01/20 09:08:45;;;;;;;1.77;1.30;;;;;;;20.23;43.01;100285.69;21073144;28;20445;-62
2023/01/20 09:18:47;;;;;;;1.50;1.40;;;;;;;20.24;42.50;100281.78;21073967;28;20380;-63
2023/01/20 09:28:53;;;;;;;4.07;1.20;;;;;;;20.20;42.26;100275.97;21075845;28;20036;-62
2023/01/20 10:00:07;;;;;;;1.50;1.33;;;;;;;20.31;41.63;100277.53;21072893;28;20036;-62
2023/01/20 10:10:59;;;;;;;1.98;1.52;;;;;;;20.43;42.02;100301.31;21087734;28;20500;-62
2023/01/20 10:21:16;;;;;;;2.58;1.77;;;;;;;20.52;41.50;100294.03;21066075;28;20066;-63
2023/01/20 10:31:41;;;;;;;1.63;1.50;;;;;;;20.55;41.59;100304.56;21087707;28;20036;-61
2023/01/20 10:41:51;;;;;;;1.77;1.40;;;;;;;20.63;41.37;100322.56;21089506;28;20093;-62
2023/01/20 10:52:18;;;;;;;2.22;1.88;;;;;;;20.63;41.60;100322.56;21083003;28;20089;-62
2023/01/20 11:02:26;;;;;;;1.80;1.60;;;;;;;20.69;41.38;100322.22;21067772;28;20576;-62
2023/01/20 11:12:33;;;;;;;2.03;1.83;;;;;;;20.72;41.32;100338.31;21059676;28;20105;-63
2023/01/20 11:22:44;;;;;;;4.82;2.03;;;;;;;20.69;41.32;100338.06;21083555;28;20040;-62
2023/01/20 11:32:45;;;;;;;2.25;1.77;;;;;;;20.55;41.26;100332.38;21080037;28;20039;-62
2023/01/20 11:42:49;;;;;;;2.45;2.15;;;;;;;20.77;41.50;100376.34;21083267;28;20047;-62
2023/01/20 11:52:51;;;;;;;2.40;2.00;;;;;;;20.77;41.43;100387.47;21083518;28;20487;-63
2023/01/20 12:03:01;;;;;;;2.53;1.65;;;;;;;20.70;41.54;100376.69;21078716;28;20380;-64
2023/01/20 12:13:15;;;;;;;6.72;2.67;;;;;;;20.68;40.97;100381.72;21076464;28;20044;-64
2023/01/20 12:23:49;;;;;;;2.90;2.17;;;;;;;20.72;41.39;100410.59;21081169;28;20040;-64
2023/01/20 12:34:09;;;;;;;3.10;2.28;;;;;;;20.76;41.02;100410.84;21080494;28;20044;-64
2023/01/20 12:44:25;;;;;;;4.05;2.30;;;;;;;20.77;40.87;100420.84;21079820;28;20383;-63
2023/01/20 12:55:01;;;;;;;3.10;2.17;;;;;;;20.68;40.94;100426.22;21078465;28;20062;-64
2023/01/20 13:05:08;;;;;;;2.97;2.35;;;;;;;20.71;40.74;100442.31;21078388;28;20044;-64
2023/01/20 13:15:23;;;;;;;2.92;1.80;;;;;;;20.70;40.93;100457.31;21077538;28;20044;-63
2023/01/20 13:25:32;;;;;;;2.30;1.88;;;;;;;20.68;40.89;100467.91;21076836;28;20043;-63
2023/01/20 13:35:42;;;;;;;3.53;1.85;;;;;;;20.68;40.69;100480.97;21075729;28;20184;-63
2023/01/20 13:45:49;;;;;;;2.15;1.85;;;;;;;20.65;40.84;100485.16;21076321;28;20027;-63
2023/01/20 13:55:55;;;;;;;3.55;1.80;;;;;;;20.59;40.67;100499.41;21075805;28;20040;-63
2023/01/20 14:05:59;;;;;;;2.92;1.95;;;;;;;20.51;40.94;100518.34;21075362;28;20036;-63
2023/01/20 14:16:01;;;;;;;1.70;1.48;;;;;;;20.49;40.86;100536.44;21074346;28;20044;-63
2023/01/20 14:26:32;;;;;;;25.90;2.78;;;;;;;20.42;41.35;100541.44;21067922;28;20044;-63
2023/01/20 14:36:34;;;;;;;4.05;1.83;;;;;;;20.35;41.42;100538.16;21040151;28;20039;-64
2023/01/20 14:46:40;;;;;;;2.67;1.65;;;;;;;20.26;41.45;100529.59;21043533;28;20048;-63
2023/01/20 14:56:47;;;;;;;1.95;1.55;;;;;;;20.33;41.55;100557.06;21054111;28;20045;-63
2023/01/20 15:07:18;;;;;;;3.13;1.88;;;;;;;20.34;41.80;100573.44;21075402;28;20101;-62
2023/01/20 15:17:19;;;;;;;3.92;1.67;;;;;;;20.42;41.54;100583.13;21033243;28;20048;-63
2023/01/20 15:27:25;;;;;;;1.73;1.45;;;;;;;20.44;41.66;100597.59;21081330;28;20044;-63
2023/01/20 15:37:27;;;;;;;1.75;1.48;;;;;;;20.40;41.52;100563.16;21052951;28;20081;-64
2023/01/20 15:47:33;;;;;;;1.70;1.30;;;;;;;20.51;41.44;100589.78;21037564;28;20044;-64
2023/01/20 15:57:34;;;;;;;2.55;1.10;;;;;;;20.52;41.77;100580.31;21082718;28;20113;-64
2023/01/20 16:07:36;;;;;;;2.10;1.30;;;;;;;20.63;41.35;100579.16;21042608;28;20067;-64
2023/01/20 16:17:37;;;;;;;1.85;1.20;;;;;;;20.55;41.31;100543.63;21081444;28;20039;-64
2023/01/20 16:27:38;;;;;;;3.20;1.50;;;;;;;20.72;41.25;100583.00;21055862;28;20045;-64
2023/01/20 16:37:41;;;;;;;3.30;1.20;;;;;;;20.78;41.39;100592.94;21060237;28;20049;-63
2023/01/20 16:47:42;;;;;;;10.25;1.83;;;;;;;20.89;41.40;100593.72;21073540;28;20420;-63
2023/01/20 16:57:43;;;;;;;1.92;1.10;;;;;;;20.39;41.26;100491.97;21066001;28;20065;-63
2023/01/20 17:07:51;;;;;;;1.95;1.10;;;;;;;20.68;41.30;100525.47;21067403;28;20098;-62
2023/01/20 17:17:57;;;;;;;19.92;2.75;;;;;;;21.22;41.17;100607.94;21060892;28;20040;-63
2023/01/20 17:27:58;;;;;;;168.43;11.35;;;;;;;21.29;41.42;100612.03;21063105;28;20097;-63
2023/01/20 17:37:59;;;;;;;350.85;27.55;;;;;;;21.37;41.31;100616.19;21067680;28;20140;-62
2023/01/20 17:48:01;;;;;;;421.98;36.22;;;;;;;21.43;41.38;100619.75;21061563;28;20043;-63
2023/01/20 17:58:02;;;;;;;374.77;33.47;;;;;;;21.49;41.47;100624.16;21059757;28;20682;-63
2023/01/20 18:08:06;;;;;;;306.25;29.38;;;;;;;21.54;41.53;100649.16;21063148;28;20094;-63
2023/01/20 18:18:08;;;;;;;251.40;24.88;;;;;;;21.54;41.46;100654.75;21059443;28;20049;-62
2023/01/20 18:28:12;;;;;;;206.35;20.75;;;;;;;21.58;41.56;100666.97;21083080;28;20078;-63
2023/01/20 18:38:13;;;;;;;210.55;19.00;;;;;;;21.64;41.37;100676.91;21085117;28;20062;-63
2023/01/20 18:48:15;;;;;;;160.80;17.17;;;;;;;21.62;41.10;100668.00;21076814;28;20548;-63
2023/01/20 18:58:16;;;;;;;131.25;15.85;;;;;;;21.66;41.17;100685.78;21029305;28;20545;-63
2023/01/20 19:08:17;;;;;;;125.40;13.70;;;;;;;21.38;41.23;100661.53;21003489;28;20098;-64
2023/01/20 19:18:19;;;;;;;113.35;12.65;;;;;;;21.56;41.73;100716.50;21001743;28;20052;-63
2023/01/20 19:28:20;;;;;;;95.47;11.52;;;;;;;21.51;41.66;100727.69;20999982;28;20045;-62
2023/01/20 19:38:21;;;;;;;81.75;9.43;;;;;;;21.51;42.05;100749.97;20999371;28;20125;-64
2023/01/20 19:48:25;;;;;;;75.95;8.75;;;;;;;21.50;42.46;100787.28;20999196;28;20074;-64
2023/01/20 19:58:30;;;;;;;55.90;8.20;;;;;;;21.45;42.86;100799.28;20998591;28;20040;-64
2023/01/20 20:08:35;;;;;;;58.50;7.38;;;;;;;21.48;42.34;100820.13;20997940;28;20033;-64
2023/01/20 20:18:42;;;;;;;43.20;6.05;;;;;;;21.34;42.12;100789.31;20996739;28;20045;-66
2023/01/20 20:28:46;;;;;;;39.35;5.78;;;;;;;21.63;41.98;100847.91;20995447;28;20047;-67
2023/01/20 20:38:52;;;;;;;30.20;5.10;;;;;;;21.70;41.96;100873.47;20995087;28;20066;-64
2023/01/20 20:48:57;;;;;;;29.25;4.63;;;;;;;21.74;41.93;100891.28;20994425;28;20105;-64
2023/01/20 20:59:00;;;;;;;31.88;4.35;;;;;;;21.78;41.67;100905.47;20993300;28;20105;-63
2023/01/20 21:09:02;;;;;;;21.50;4.13;;;;;;;21.76;41.83;100922.47;21013976;28;20079;-64
2023/01/20 21:19:03;;;;;;;18.23;3.20;;;;;;;21.86;41.58;100941.06;21069005;28;20464;-64
2023/01/20 21:29:09;;;;;;;18.75;3.17;;;;;;;21.74;41.58;100935.84;21069728;28;20046;-64
2023/01/20 21:39:13;;;;;;;16.00;3.35;;;;;;;21.91;41.92;100976.44;21066588;28;20043;-64
2023/01/20 21:59:34;;;;;;;24.70;3.25;;;;;;;21.93;41.52;101027.94;21080631;28;20467;-64
2023/01/20 22:09:35;;;;;;;21.77;3.13;;;;;;;21.95;41.41;101049.97;21090648;28;20368;-64
2023/01/20 22:19:42;;;;;;;12.57;2.80;;;;;;;21.84;41.23;101043.59;21090205;28;20430;-66
2023/01/20 22:29:44;;;;;;;18.67;3.28;;;;;;;21.95;41.45;101078.66;21069825;28;20109;-63
2023/01/20 22:39:47;;;;;;;28.15;3.88;;;;;;;21.87;41.84;101086.78;21088243;28;20044;-64
2023/01/20 22:49:49;;;;;;;12.98;4.03;;;;;;;21.92;42.19;101117.41;21089192;28;20491;-63
2023/01/20 22:59:53;;;;;;;14.52;3.92;;;;;;;21.97;42.28;101142.44;21069407;28;20044;-63
2023/01/20 23:09:57;;;;;;;16.52;3.80;;;;;;;21.97;41.84;101150.81;21085716;28;20489;-63
2023/01/20 23:19:58;;;;;;;15.95;4.72;;;;;;;21.80;41.76;101138.03;21085058;28;20055;-63
2023/01/20 23:29:59;;;;;;;8.73;3.22;;;;;;;21.81;42.02;101150.88;21067532;28;20039;-65
2023/01/20 23:40:01;;;;;;;10.82;2.78;;;;;;;21.90;41.92;101187.34;21084246;28;20040;-63
2023/01/20 23:50:06;;;;;;;14.32;3.08;;;;;;;21.94;41.45;101215.44;21063521;28;20040;-63
